createdAt,value
2023-04-25T00:00:38.028Z,0.00
2023-04-25T00:01:38.068Z,0.00
2023-04-25T00:02:38.162Z,0.00
2023-04-25T00:03:38.220Z,0.00
2023-04-25T00:04:38.255Z,0.00
2023-04-25T00:05:38.254Z,0.00
2023-04-25T00:06:37.993Z,0.00
2023-04-25T00:07:37.959Z,0.00
2023-04-25T00:08:37.941Z,0.00
2023-04-25T00:09:37.909Z,0.00
2023-04-25T00:10:37.906Z,0.00
2023-04-25T00:11:37.928Z,0.00
2023-04-25T00:12:37.864Z,0.00
2023-04-25T00:13:37.882Z,0.00
2023-04-25T00:14:37.857Z,0.00
2023-04-25T00:15:37.847Z,0.00
2023-04-25T00:16:37.941Z,0.00
2023-04-25T00:17:37.885Z,0.00
2023-04-25T00:18:37.812Z,0.00
2023-04-25T00:19:37.808Z,0.00
2023-04-25T00:20:37.813Z,0.00
2023-04-25T00:21:37.817Z,0.00
2023-04-25T00:22:37.788Z,0.00
2023-04-25T00:23:37.751Z,0.00
2023-04-25T00:24:37.734Z,0.00
2023-04-25T00:25:37.743Z,0.00
2023-04-25T00:26:37.770Z,0.00
2023-04-25T00:27:37.712Z,0.00
2023-04-25T00:28:37.698Z,0.00
2023-04-25T00:29:37.696Z,0.00
2023-04-25T00:30:37.657Z,0.00
2023-04-25T00:31:37.796Z,0.00
2023-04-25T00:32:37.742Z,0.00
2023-04-25T00:33:37.643Z,0.00
2023-04-25T00:34:37.627Z,0.00
2023-04-25T00:35:37.617Z,0.00
2023-04-25T00:36:37.648Z,0.00
2023-04-25T00:37:37.612Z,0.00
2023-04-25T00:38:37.594Z,0.00
2023-04-25T00:39:37.577Z,0.00
2023-04-25T00:40:37.560Z,0.00
2023-04-25T00:41:37.580Z,0.00
2023-04-25T00:42:37.533Z,0.00
2023-04-25T00:43:37.520Z,0.00
2023-04-25T00:44:37.530Z,0.00
2023-04-25T00:45:37.512Z,0.00
2023-04-25T00:46:37.588Z,0.00
2023-04-25T00:47:37.522Z,0.00
2023-04-25T00:48:37.481Z,0.00
2023-04-25T00:49:37.480Z,0.00
2023-04-25T00:50:37.467Z,0.00
2023-04-25T00:51:37.482Z,0.00
2023-04-25T00:52:37.429Z,0.00
2023-04-25T00:53:37.435Z,0.00
2023-04-25T00:54:37.401Z,0.00
2023-04-25T00:55:37.410Z,0.00
2023-04-25T00:56:37.425Z,0.00
2023-04-25T00:57:37.379Z,0.00
2023-04-25T00:58:37.368Z,0.00
2023-04-25T00:59:37.359Z,0.00
2023-04-25T01:00:37.373Z,0.00
2023-04-25T01:01:37.381Z,0.00
2023-04-25T01:02:37.457Z,0.00
2023-04-25T01:03:37.617Z,0.00
2023-04-25T01:04:37.301Z,0.00
2023-04-25T01:05:37.300Z,0.00
2023-04-25T01:06:37.274Z,0.00
2023-04-25T01:07:37.306Z,0.00
2023-04-25T01:08:37.250Z,0.00
2023-04-25T01:09:37.245Z,0.00
2023-04-25T01:10:37.239Z,0.00
2023-04-25T01:11:37.201Z,0.00
2023-04-25T01:12:37.248Z,0.00
2023-04-25T01:13:37.192Z,0.00
2023-04-25T01:14:37.172Z,0.00
2023-04-25T01:15:37.206Z,0.00
2023-04-25T01:16:37.199Z,0.00
2023-04-25T01:17:37.202Z,0.00
2023-04-25T01:18:37.149Z,0.00
2023-04-25T01:19:37.126Z,0.00
2023-04-25T01:20:37.106Z,0.00
2023-04-25T01:21:37.109Z,0.00
2023-04-25T01:22:37.128Z,0.00
2023-04-25T01:23:37.097Z,0.00
2023-04-25T01:24:37.074Z,0.00
2023-04-25T01:25:37.078Z,0.00
2023-04-25T01:26:37.052Z,0.00
2023-04-25T01:27:37.073Z,0.00
2023-04-25T01:28:37.007Z,0.00
2023-04-25T01:29:37.022Z,0.00
2023-04-25T01:30:36.981Z,0.00
2023-04-25T01:31:37.007Z,0.00
2023-04-25T01:32:37.047Z,0.00
2023-04-25T01:33:36.974Z,0.00
2023-04-25T01:34:36.964Z,0.00
2023-04-25T01:35:36.951Z,0.00
2023-04-25T01:36:36.929Z,0.00
2023-04-25T01:37:36.967Z,0.00
2023-04-25T01:38:36.901Z,0.00
2023-04-25T01:39:36.890Z,0.00
2023-04-25T01:40:36.898Z,0.00
2023-04-25T01:41:36.866Z,0.00
2023-04-25T01:42:36.900Z,0.00
2023-04-25T01:43:36.850Z,0.00
2023-04-25T01:44:36.841Z,0.00
2023-04-25T01:45:36.840Z,0.00
2023-04-25T01:46:36.988Z,0.00
2023-04-25T01:47:36.920Z,0.00
2023-04-25T01:48:36.802Z,0.00
2023-04-25T01:49:36.817Z,0.00
2023-04-25T01:50:36.770Z,0.00
2023-04-25T01:51:36.792Z,0.00
2023-04-25T01:52:36.751Z,0.00
2023-04-25T01:53:36.759Z,0.00
2023-04-25T01:54:36.729Z,0.00
2023-04-25T01:55:36.711Z,0.00
2023-04-25T01:56:36.744Z,0.00
2023-04-25T01:57:36.712Z,0.00
2023-04-25T01:58:36.688Z,0.00
2023-04-25T01:59:36.669Z,0.00
2023-04-25T02:00:36.688Z,0.00
2023-04-25T02:01:36.725Z,0.00
2023-04-25T02:02:36.856Z,0.00
2023-04-25T02:03:36.788Z,0.00
2023-04-25T02:04:36.707Z,0.00
2023-04-25T02:05:36.610Z,0.00
2023-04-25T02:06:36.624Z,0.00
2023-04-25T02:07:36.621Z,0.00
2023-04-25T02:08:36.581Z,0.00
2023-04-25T02:09:36.567Z,0.00
2023-04-25T02:10:36.557Z,0.00
2023-04-25T02:11:36.548Z,0.00
2023-04-25T02:12:36.576Z,0.00
2023-04-25T02:13:36.519Z,0.00
2023-04-25T02:14:36.501Z,0.00
2023-04-25T02:15:36.530Z,0.00
2023-04-25T02:16:36.652Z,0.00
2023-04-25T02:17:36.489Z,0.00
2023-04-25T02:18:36.484Z,0.00
2023-04-25T02:19:36.455Z,0.00
2023-04-25T02:20:36.445Z,0.00
2023-04-25T02:21:36.446Z,0.00
2023-04-25T02:22:36.502Z,0.00
2023-04-25T02:23:36.405Z,0.00
2023-04-25T02:24:36.403Z,0.00
2023-04-25T02:25:36.386Z,0.00
2023-04-25T02:26:36.386Z,0.00
2023-04-25T02:27:36.397Z,0.00
2023-04-25T02:28:36.376Z,0.00
2023-04-25T02:29:36.336Z,0.00
2023-04-25T02:30:36.382Z,0.00
2023-04-25T02:31:36.363Z,0.00
2023-04-25T02:32:36.410Z,0.00
2023-04-25T02:33:36.298Z,0.00
2023-04-25T02:34:36.312Z,0.00
2023-04-25T02:35:36.294Z,0.00
2023-04-25T02:36:36.254Z,0.00
2023-04-25T02:37:36.285Z,0.00
2023-04-25T02:38:36.258Z,0.00
2023-04-25T02:39:36.224Z,0.00
2023-04-25T02:40:36.248Z,0.00
2023-04-25T02:41:36.206Z,0.00
2023-04-25T02:42:36.227Z,0.00
2023-04-25T02:43:36.190Z,0.00
2023-04-25T02:44:36.166Z,0.00
2023-04-25T02:45:36.220Z,0.00
2023-04-25T02:46:39.604Z,0.00
2023-04-25T02:47:36.195Z,0.00
2023-04-25T02:48:36.157Z,0.00
2023-04-25T02:49:36.140Z,0.00
2023-04-25T02:50:36.109Z,0.00
2023-04-25T02:51:36.115Z,0.00
2023-04-25T02:52:36.124Z,0.00
2023-04-25T02:53:36.089Z,0.00
2023-04-25T02:54:36.063Z,0.00
2023-04-25T02:55:36.046Z,0.00
2023-04-25T02:56:36.043Z,0.00
2023-04-25T02:57:36.046Z,0.00
2023-04-25T02:58:36.035Z,0.00
2023-04-25T02:59:35.991Z,0.00
2023-04-25T03:00:36.056Z,0.00
2023-04-25T03:01:35.989Z,0.00
2023-04-25T03:02:36.067Z,0.00
2023-04-25T03:03:36.054Z,0.00
2023-04-25T03:04:35.982Z,0.00
2023-04-25T03:05:35.941Z,0.00
2023-04-25T03:06:35.933Z,0.00
2023-04-25T03:07:35.961Z,0.00
2023-04-25T03:08:35.935Z,0.00
2023-04-25T03:09:35.942Z,0.00
2023-04-25T03:10:35.885Z,4.00
2023-04-25T03:11:35.870Z,4.00
2023-04-25T03:12:35.889Z,4.00
2023-04-25T03:13:35.879Z,0.00
2023-04-25T03:14:35.840Z,4.00
2023-04-25T03:15:35.827Z,4.00
2023-04-25T03:16:35.836Z,8.00
2023-04-25T03:17:35.902Z,4.00
2023-04-25T03:18:35.790Z,8.00
2023-04-25T03:19:35.789Z,4.00
2023-04-25T03:20:35.787Z,8.00
2023-04-25T03:21:35.726Z,8.00
2023-04-25T03:22:35.782Z,12.00
2023-04-25T03:23:35.723Z,16.00
2023-04-25T03:24:35.718Z,16.00
2023-04-25T03:25:35.700Z,16.00
2023-04-25T03:26:35.705Z,20.00
2023-04-25T03:27:35.725Z,28.00
2023-04-25T03:28:35.688Z,28.00
2023-04-25T03:29:35.659Z,32.00
2023-04-25T03:30:35.684Z,44.00
2023-04-25T03:31:35.678Z,48.00
2023-04-25T03:32:35.748Z,52.00
2023-04-25T03:33:35.607Z,64.00
2023-04-25T03:34:35.627Z,76.00
2023-04-25T03:35:35.604Z,84.00
2023-04-25T03:36:35.596Z,96.00
2023-04-25T03:37:35.606Z,112.00
2023-04-25T03:38:35.567Z,124.00
2023-04-25T03:39:35.553Z,136.00
2023-04-25T03:40:35.556Z,152.00
2023-04-25T03:41:35.526Z,172.00
2023-04-25T03:42:35.554Z,196.00
2023-04-25T03:43:35.534Z,216.00
2023-04-25T03:44:35.485Z,244.00
2023-04-25T03:45:35.508Z,272.00
2023-04-25T03:46:35.485Z,300.00
2023-04-25T03:47:35.475Z,332.00
2023-04-25T03:48:35.474Z,364.00
2023-04-25T03:49:35.433Z,396.00
2023-04-25T03:50:35.424Z,432.00
2023-04-25T03:51:35.430Z,468.00
2023-04-25T03:52:35.471Z,508.00
2023-04-25T03:53:35.446Z,544.00
2023-04-25T03:54:35.397Z,584.00
2023-04-25T03:55:35.364Z,620.00
2023-04-25T03:56:35.386Z,664.00
2023-04-25T03:57:35.351Z,704.00
2023-04-25T03:58:35.384Z,748.00
2023-04-25T03:59:35.346Z,792.00
2023-04-25T04:00:35.312Z,840.00
2023-04-25T04:01:35.311Z,884.00
2023-04-25T04:02:35.425Z,928.00
2023-04-25T04:03:35.567Z,980.00
2023-04-25T04:04:35.464Z,1032.00
2023-04-25T04:05:35.269Z,1084.00
2023-04-25T04:06:35.255Z,1140.00
2023-04-25T04:07:35.242Z,1196.00
2023-04-25T04:08:35.262Z,1252.00
2023-04-25T04:09:35.213Z,1300.00
2023-04-25T04:10:35.201Z,1348.00
2023-04-25T04:11:35.182Z,1396.00
2023-04-25T04:12:35.182Z,1452.00
2023-04-25T04:13:35.200Z,1500.00
2023-04-25T04:14:35.164Z,1560.00
2023-04-25T04:15:35.227Z,1620.00
2023-04-25T04:16:35.278Z,1680.00
2023-04-25T04:17:35.149Z,1748.00
2023-04-25T04:18:35.180Z,1820.00
2023-04-25T04:19:35.085Z,1892.00
2023-04-25T04:20:35.087Z,1980.00
2023-04-25T04:21:35.075Z,2080.00
2023-04-25T04:22:35.071Z,2196.00
2023-04-25T04:23:35.202Z,2308.00
2023-04-25T04:24:35.060Z,2412.00
2023-04-25T04:25:35.027Z,2508.00
2023-04-25T04:26:35.030Z,2612.00
2023-04-25T04:27:35.021Z,2756.00
2023-04-25T04:28:35.052Z,3096.00
2023-04-25T04:29:34.989Z,3456.00
2023-04-25T04:30:35.018Z,3932.00
2023-04-25T04:31:35.117Z,4204.00
2023-04-25T04:32:34.978Z,4396.00
2023-04-25T04:33:34.984Z,4476.00
2023-04-25T04:34:34.935Z,4428.00
2023-04-25T04:35:34.924Z,4328.00
2023-04-25T04:36:34.924Z,4372.00
2023-04-25T04:37:34.886Z,4468.00
2023-04-25T04:38:34.932Z,4532.00
2023-04-25T04:39:34.884Z,4556.00
2023-04-25T04:40:34.857Z,4608.00
2023-04-25T04:41:34.855Z,4700.00
2023-04-25T04:42:34.833Z,4812.00
2023-04-25T04:43:34.892Z,4888.00
2023-04-25T04:44:34.873Z,4940.00
2023-04-25T04:45:34.827Z,5004.00
2023-04-25T04:46:34.920Z,5056.00
2023-04-25T04:47:34.838Z,5112.00
2023-04-25T04:48:34.828Z,5160.00
2023-04-25T04:49:34.775Z,5156.00
2023-04-25T04:50:34.777Z,5172.00
2023-04-25T04:51:34.732Z,5188.00
2023-04-25T04:52:34.743Z,5060.00
2023-04-25T04:53:34.767Z,5136.00
2023-04-25T04:54:34.720Z,5280.00
2023-04-25T04:55:34.705Z,5316.00
2023-04-25T04:56:34.706Z,5268.00
2023-04-25T04:57:34.684Z,5260.00
2023-04-25T04:58:34.739Z,5248.00
2023-04-25T04:59:34.646Z,5248.00
2023-04-25T05:00:34.675Z,5256.00
2023-04-25T05:01:34.624Z,5132.00
2023-04-25T05:02:34.832Z,5348.00
2023-04-25T05:03:34.864Z,5432.00
2023-04-25T05:04:34.741Z,5492.00
2023-04-25T05:05:34.609Z,5544.00
2023-04-25T05:06:34.588Z,5536.00
2023-04-25T05:07:34.575Z,5532.00
2023-04-25T05:08:34.603Z,5584.00
2023-04-25T05:09:34.560Z,5604.00
2023-04-25T05:10:34.513Z,5636.00
2023-04-25T05:11:34.513Z,5640.00
2023-04-25T05:12:35.859Z,5668.00
2023-04-25T05:13:34.548Z,5692.00
2023-04-25T05:14:34.515Z,5716.00
2023-04-25T05:15:34.514Z,5772.00
2023-04-25T05:16:34.523Z,5856.00
2023-04-25T05:17:34.686Z,5968.00
2023-04-25T05:18:34.494Z,6092.00
2023-04-25T05:19:34.443Z,6180.00
2023-04-25T05:20:34.421Z,6292.00
2023-04-25T05:21:34.403Z,6452.00
2023-04-25T05:22:34.383Z,6560.00
2023-04-25T05:23:34.444Z,6664.00
2023-04-25T05:24:34.392Z,6688.00
2023-04-25T05:25:34.362Z,6728.00
2023-04-25T05:26:34.392Z,6528.00
2023-04-25T05:27:34.350Z,6436.00
2023-04-25T05:28:34.369Z,6340.00
2023-04-25T05:29:34.324Z,6224.00
2023-04-25T05:30:34.321Z,6176.00
2023-04-25T05:31:35.232Z,6344.00
2023-04-25T05:32:34.342Z,6380.00
2023-04-25T05:33:34.315Z,6604.00
2023-04-25T05:34:34.257Z,6716.00
2023-04-25T05:35:34.294Z,6920.00
2023-04-25T05:36:34.272Z,7096.00
2023-04-25T05:37:34.225Z,7232.00
2023-04-25T05:38:35.120Z,7384.00
2023-04-25T05:39:34.180Z,7612.00
2023-04-25T05:40:34.188Z,7836.00
2023-04-25T05:41:34.183Z,7244.00
2023-04-25T05:42:34.185Z,7940.00
2023-04-25T05:43:34.248Z,7504.00
2023-04-25T05:44:34.200Z,7444.00
2023-04-25T05:45:34.175Z,7284.00
2023-04-25T05:46:34.269Z,6412.00
2023-04-25T05:47:34.378Z,6064.00
2023-04-25T05:48:34.157Z,6496.00
2023-04-25T05:49:34.105Z,6624.00
2023-04-25T05:50:34.083Z,6804.00
2023-04-25T05:51:34.076Z,6728.00
2023-04-25T05:52:34.058Z,6796.00
2023-04-25T05:53:34.097Z,6848.00
2023-04-25T05:54:34.069Z,6724.00
2023-04-25T05:55:34.051Z,6888.00
2023-04-25T05:56:34.044Z,7044.00
2023-04-25T05:57:33.998Z,7228.00
2023-04-25T05:58:34.057Z,7380.00
2023-04-25T05:59:33.958Z,7304.00
2023-04-25T06:00:33.983Z,7424.00
2023-04-25T06:01:33.982Z,7684.00
2023-04-25T06:02:34.092Z,7752.00
2023-04-25T06:03:34.132Z,8948.00
2023-04-25T06:04:34.373Z,9768.00
2023-04-25T06:05:34.257Z,10808.00
2023-04-25T06:06:33.884Z,12588.00
2023-04-25T06:07:33.881Z,12756.00
2023-04-25T06:08:33.960Z,12580.00
2023-04-25T06:09:33.881Z,12440.00
2023-04-25T06:10:33.863Z,12952.00
2023-04-25T06:11:33.835Z,13684.00
2023-04-25T06:12:33.862Z,13640.00
2023-04-25T06:13:33.879Z,13548.00
2023-04-25T06:14:33.820Z,13492.00
2023-04-25T06:15:33.824Z,13056.00
2023-04-25T06:16:33.806Z,12536.00
2023-04-25T06:17:33.795Z,11916.00
2023-04-25T06:18:33.774Z,11912.00
2023-04-25T06:19:33.787Z,11532.00
2023-04-25T06:20:33.764Z,11520.00
2023-04-25T06:21:33.781Z,12272.00
2023-04-25T06:22:33.735Z,12624.00
2023-04-25T06:23:33.718Z,13704.00
2023-04-25T06:24:33.742Z,14084.00
2023-04-25T06:25:33.692Z,14288.00
2023-04-25T06:26:33.675Z,14404.00
2023-04-25T06:27:33.663Z,14704.00
2023-04-25T06:28:33.687Z,14636.00
2023-04-25T06:29:33.659Z,14708.00
2023-04-25T06:30:33.622Z,14192.00
2023-04-25T06:31:33.713Z,14316.00
2023-04-25T06:32:33.649Z,15160.00
2023-04-25T06:33:33.618Z,15828.00
2023-04-25T06:34:33.577Z,16544.00
2023-04-25T06:35:33.590Z,15628.00
2023-04-25T06:36:33.568Z,14948.00
2023-04-25T06:37:33.577Z,15512.00
2023-04-25T06:38:33.569Z,17184.00
2023-04-25T06:39:33.580Z,18240.00
2023-04-25T06:40:33.520Z,16916.00
2023-04-25T06:41:33.498Z,16044.00
2023-04-25T06:42:33.501Z,16632.00
2023-04-25T06:43:33.490Z,17004.00
2023-04-25T06:44:33.540Z,17408.00
2023-04-25T06:45:33.458Z,17376.00
2023-04-25T06:46:33.503Z,16644.00
2023-04-25T06:47:33.471Z,16724.00
2023-04-25T06:48:33.481Z,18080.00
2023-04-25T06:49:33.420Z,20192.00
2023-04-25T06:50:33.405Z,20256.00
2023-04-25T06:51:33.389Z,20128.00
2023-04-25T06:52:33.415Z,19648.00
2023-04-25T06:53:33.423Z,18688.00
2023-04-25T06:54:33.374Z,18656.00
2023-04-25T06:55:33.392Z,18048.00
2023-04-25T06:56:33.414Z,16792.00
2023-04-25T06:57:33.342Z,16184.00
2023-04-25T06:58:33.345Z,15600.00
2023-04-25T06:59:33.312Z,15176.00
2023-04-25T07:00:33.301Z,14760.00
2023-04-25T07:01:33.262Z,14212.00
2023-04-25T07:02:33.411Z,13808.00
2023-04-25T07:03:33.417Z,13460.00
2023-04-25T07:04:33.367Z,13216.00
2023-04-25T07:05:33.262Z,13420.00
2023-04-25T07:06:33.223Z,14144.00
2023-04-25T07:07:33.211Z,14584.00
2023-04-25T07:08:33.207Z,14520.00
2023-04-25T07:09:33.264Z,14384.00
2023-04-25T07:10:33.210Z,14044.00
2023-04-25T07:11:33.163Z,13416.00
2023-04-25T07:12:33.157Z,13016.00
2023-04-25T07:13:33.144Z,13260.00
2023-04-25T07:14:33.192Z,13960.00
2023-04-25T07:15:33.129Z,14396.00
2023-04-25T07:16:33.140Z,14724.00
2023-04-25T07:17:33.181Z,14420.00
2023-04-25T07:18:33.095Z,13776.00
2023-04-25T07:19:33.128Z,13512.00
2023-04-25T07:20:33.056Z,13216.00
2023-04-25T07:21:33.083Z,12632.00
2023-04-25T07:22:33.050Z,12596.00
2023-04-25T07:23:33.030Z,12708.00
2023-04-25T07:24:33.056Z,13140.00
2023-04-25T07:25:33.105Z,13992.00
2023-04-25T07:26:33.021Z,14260.00
2023-04-25T07:27:33.005Z,13256.00
2023-04-25T07:28:32.964Z,14916.00
2023-04-25T07:29:33.012Z,13056.00
2023-04-25T07:30:32.939Z,13464.00
2023-04-25T07:31:32.998Z,13876.00
2023-04-25T07:32:32.958Z,14576.00
2023-04-25T07:33:32.975Z,12696.00
2023-04-25T07:34:32.984Z,13428.00
2023-04-25T07:35:32.966Z,16352.00
2023-04-25T07:36:32.875Z,16812.00
2023-04-25T07:37:32.902Z,19648.00
2023-04-25T07:38:32.903Z,18784.00
2023-04-25T07:39:32.894Z,19936.00
2023-04-25T07:40:32.833Z,20704.00
2023-04-25T07:41:32.835Z,20160.00
2023-04-25T07:42:32.833Z,17444.00
2023-04-25T07:43:32.812Z,16628.00
2023-04-25T07:44:32.834Z,15472.00
2023-04-25T07:45:32.806Z,15144.00
2023-04-25T07:46:32.850Z,15780.00
2023-04-25T07:47:32.830Z,18528.00
2023-04-25T07:48:32.757Z,21152.00
2023-04-25T07:49:32.812Z,26912.00
2023-04-25T07:50:32.757Z,25120.00
2023-04-25T07:51:32.753Z,17192.00
2023-04-25T07:52:32.723Z,20512.00
2023-04-25T07:53:32.960Z,21664.00
2023-04-25T07:54:32.734Z,30752.00
2023-04-25T07:55:32.671Z,14112.00
2023-04-25T07:56:45.236Z,12836.00
2023-04-25T07:57:33.646Z,13984.00
2023-04-25T07:58:32.647Z,22624.00
2023-04-25T07:59:32.659Z,42176.00
2023-04-25T08:00:32.656Z,43712.00
2023-04-25T08:01:32.600Z,27232.00
2023-04-25T08:02:32.704Z,18688.00
2023-04-25T08:03:32.881Z,22016.00
2023-04-25T08:04:32.770Z,35744.00
2023-04-25T08:05:32.759Z,37472.00
2023-04-25T08:06:32.934Z,51232.00
2023-04-25T08:07:32.565Z,27456.00
2023-04-25T08:08:32.533Z,29696.00
2023-04-25T08:09:32.552Z,25824.00
2023-04-25T08:10:32.509Z,25760.00
2023-04-25T08:11:32.504Z,22496.00
2023-04-25T08:12:32.510Z,15084.00
2023-04-25T08:13:32.466Z,14224.00
2023-04-25T08:14:32.492Z,16104.00
2023-04-25T08:15:32.478Z,19776.00
2023-04-25T08:16:32.488Z,22432.00
2023-04-25T08:17:32.450Z,23008.00
2023-04-25T08:18:32.455Z,23584.00
2023-04-25T08:19:32.472Z,22656.00
2023-04-25T08:20:32.398Z,23616.00
2023-04-25T08:21:32.456Z,22752.00
2023-04-25T08:22:32.372Z,23040.00
2023-04-25T08:23:32.356Z,20928.00
2023-04-25T08:24:32.350Z,21120.00
2023-04-25T08:25:32.402Z,20960.00
2023-04-25T08:26:32.390Z,21792.00
2023-04-25T08:27:32.316Z,55008.00
2023-04-25T08:28:32.332Z,36320.00
2023-04-25T08:29:32.426Z,26880.00
2023-04-25T08:30:32.333Z,37344.00
2023-04-25T08:31:32.318Z,40800.00
2023-04-25T08:32:32.270Z,57952.00
2023-04-25T08:33:32.271Z,60512.00
2023-04-25T08:34:32.262Z,59392.00
2023-04-25T08:35:32.263Z,31488.00
2023-04-25T08:36:39.264Z,28512.00
2023-04-25T08:37:33.194Z,18688.00
2023-04-25T08:38:32.195Z,14460.00
2023-04-25T08:39:32.171Z,12516.00
2023-04-25T08:40:32.207Z,12516.00
2023-04-25T08:41:32.147Z,12928.00
2023-04-25T08:42:32.150Z,12928.00
2023-04-25T08:43:32.144Z,13300.00
2023-04-25T08:44:32.149Z,13636.00
2023-04-25T08:45:32.263Z,13288.00
2023-04-25T08:46:32.247Z,12572.00
2023-04-25T08:47:32.158Z,11688.00
2023-04-25T08:48:32.068Z,10464.00
2023-04-25T08:49:32.080Z,10072.00
2023-04-25T08:50:32.100Z,11380.00
2023-04-25T08:51:32.036Z,14420.00
2023-04-25T08:52:32.050Z,18976.00
2023-04-25T08:53:31.997Z,24992.00
2023-04-25T08:54:35.580Z,30176.00
2023-04-25T08:55:32.029Z,46080.00
2023-04-25T08:56:31.977Z,36224.00
2023-04-25T08:57:31.955Z,32448.00
2023-04-25T08:58:31.959Z,30560.00
2023-04-25T08:59:32.060Z,35648.00
2023-04-25T09:00:32.063Z,22496.00
2023-04-25T09:01:31.990Z,18880.00
2023-04-25T09:02:31.953Z,16700.00
2023-04-25T09:03:32.040Z,16592.00
2023-04-25T09:04:31.877Z,17984.00
2023-04-25T09:05:31.914Z,20640.00
2023-04-25T09:06:31.883Z,20896.00
2023-04-25T09:07:31.848Z,22656.00
2023-04-25T09:08:31.840Z,29376.00
2023-04-25T09:09:31.874Z,64928.00
2023-04-25T09:11:31.825Z,39488.00
2023-04-25T09:12:31.787Z,37376.00
2023-04-25T09:13:31.779Z,64448.00
2023-04-25T09:14:31.762Z,34592.00
2023-04-25T09:15:31.855Z,32000.00
2023-04-25T09:16:32.718Z,37568.00
2023-04-25T09:17:31.765Z,38112.00
2023-04-25T09:18:31.718Z,52416.00
2023-04-25T09:19:40.398Z,45248.00
2023-04-25T09:20:35.210Z,41536.00
2023-04-25T09:21:31.676Z,40192.00
2023-04-25T09:22:31.665Z,46976.00
2023-04-25T09:23:31.770Z,46112.00
2023-04-25T09:24:31.658Z,46688.00
2023-04-25T09:25:31.713Z,50336.00
2023-04-25T09:26:31.787Z,29120.00
2023-04-25T09:27:31.696Z,20896.00
2023-04-25T09:28:31.634Z,15840.00
2023-04-25T09:29:31.631Z,13092.00
2023-04-25T09:30:31.683Z,10940.00
2023-04-25T09:31:31.602Z,9692.00
2023-04-25T09:32:31.635Z,9924.00
2023-04-25T09:33:31.556Z,10936.00
2023-04-25T09:34:31.533Z,12448.00
2023-04-25T09:35:31.662Z,14396.00
2023-04-25T09:36:31.551Z,18336.00
2023-04-25T09:37:31.506Z,24320.00
2023-04-25T09:38:31.492Z,54656.00
2023-04-25T09:39:31.486Z,75904.00
2023-04-25T09:40:31.516Z,30624.00
2023-04-25T09:41:31.481Z,64000.00
2023-04-25T09:42:31.469Z,58176.00
2023-04-25T09:43:31.454Z,22112.00
2023-04-25T09:44:31.448Z,26432.00
2023-04-25T09:45:31.466Z,72992.00
2023-04-25T09:46:31.529Z,76192.00
2023-04-25T09:47:31.487Z,78400.00
2023-04-25T09:48:31.448Z,80480.00
2023-04-25T09:49:31.395Z,82144.00
2023-04-25T09:50:31.408Z,83776.00
2023-04-25T09:51:31.350Z,83040.00
2023-04-25T09:52:31.349Z,80256.00
2023-04-25T09:53:31.335Z,23008.00
2023-04-25T09:54:31.306Z,20128.00
2023-04-25T09:55:31.489Z,19424.00
2023-04-25T09:56:31.298Z,19904.00
2023-04-25T09:57:31.289Z,16468.00
2023-04-25T09:58:33.108Z,38784.00
2023-04-25T09:59:31.267Z,31360.00
2023-04-25T10:00:31.283Z,23008.00
2023-04-25T10:01:31.303Z,28096.00
2023-04-25T10:02:31.325Z,48384.00
2023-04-25T10:03:31.360Z,31392.00
2023-04-25T10:04:33.460Z,48960.00
2023-04-25T10:05:31.250Z,44640.00
2023-04-25T10:06:31.218Z,51360.00
2023-04-25T10:07:31.169Z,40576.00
2023-04-25T10:08:31.201Z,36864.00
2023-04-25T10:09:31.142Z,36736.00
2023-04-25T10:10:32.126Z,35552.00
2023-04-25T10:11:31.141Z,35872.00
2023-04-25T10:12:31.123Z,32928.00
2023-04-25T10:13:31.117Z,33984.00
2023-04-25T10:14:31.106Z,34976.00
2023-04-25T10:15:31.150Z,33856.00
2023-04-25T10:16:31.254Z,32864.00
2023-04-25T10:17:31.123Z,34144.00
2023-04-25T10:18:31.050Z,37760.00
2023-04-25T10:19:31.062Z,43968.00
2023-04-25T10:20:31.115Z,98176.00
2023-04-25T10:21:31.015Z,54656.00
2023-04-25T10:22:30.981Z,51456.00
2023-04-25T10:23:31.001Z,42336.00
2023-04-25T10:24:31.006Z,36960.00
2023-04-25T10:25:30.998Z,30336.00
2023-04-25T10:26:31.387Z,27968.00
2023-04-25T10:27:30.943Z,30816.00
2023-04-25T10:28:30.958Z,35136.00
2023-04-25T10:29:30.972Z,40928.00
2023-04-25T10:30:31.030Z,40992.00
2023-04-25T10:31:31.028Z,37184.00
2023-04-25T10:32:31.321Z,39712.00
2023-04-25T10:33:30.881Z,33888.00
2023-04-25T10:34:30.869Z,33888.00
2023-04-25T10:35:30.932Z,40320.00
2023-04-25T10:36:30.874Z,57472.00
2023-04-25T10:37:30.861Z,65984.00
2023-04-25T10:38:30.830Z,38720.00
2023-04-25T10:39:30.815Z,35168.00
2023-04-25T10:40:30.900Z,33312.00
2023-04-25T10:41:30.780Z,33440.00
2023-04-25T10:42:30.782Z,32352.00
2023-04-25T10:43:30.787Z,30400.00
2023-04-25T10:44:30.789Z,29120.00
2023-04-25T10:45:30.786Z,30304.00
2023-04-25T10:46:30.810Z,31200.00
2023-04-25T10:47:30.765Z,32032.00
2023-04-25T10:48:30.719Z,31616.00
2023-04-25T10:49:30.703Z,30432.00
2023-04-25T10:50:30.742Z,29664.00
2023-04-25T10:51:37.187Z,29184.00
2023-04-25T10:52:31.686Z,29280.00
2023-04-25T10:53:30.676Z,50784.00
2023-04-25T10:54:30.657Z,85440.00
2023-04-25T10:55:30.700Z,52000.00
2023-04-25T10:56:30.638Z,62464.00
2023-04-25T10:57:30.659Z,97920.00
2023-04-25T10:58:30.632Z,101376.00
2023-04-25T10:59:30.582Z,65568.00
2023-04-25T11:00:38.321Z,31552.00
2023-04-25T11:01:31.649Z,31456.00
2023-04-25T11:02:30.694Z,17056.00
2023-04-25T11:03:30.703Z,12096.00
2023-04-25T11:04:30.797Z,10268.00
2023-04-25T11:05:30.543Z,9176.00
2023-04-25T11:06:30.565Z,9408.00
2023-04-25T11:07:30.519Z,11080.00
2023-04-25T11:08:30.501Z,13848.00
2023-04-25T11:09:30.485Z,16756.00
2023-04-25T11:10:30.477Z,20992.00
2023-04-25T11:11:30.528Z,24672.00
2023-04-25T11:12:30.424Z,28768.00
2023-04-25T11:13:30.436Z,34368.00
2023-04-25T11:14:30.416Z,70016.00
2023-04-25T11:15:30.402Z,101184.00
2023-04-25T11:16:30.490Z,39008.00
2023-04-25T11:17:30.508Z,37824.00
2023-04-25T11:18:30.459Z,28352.00
2023-04-25T11:19:30.371Z,25760.00
2023-04-25T11:20:30.385Z,25568.00
2023-04-25T11:21:30.405Z,23872.00
2023-04-25T11:22:30.334Z,23424.00
2023-04-25T11:23:30.333Z,23712.00
2023-04-25T11:24:30.309Z,22080.00
2023-04-25T11:25:30.310Z,19776.00
2023-04-25T11:26:30.332Z,17984.00
2023-04-25T11:27:30.283Z,17536.00
2023-04-25T11:28:30.263Z,18208.00
2023-04-25T11:29:30.279Z,18496.00
2023-04-25T11:30:30.253Z,18976.00
2023-04-25T11:31:30.323Z,20448.00
2023-04-25T11:32:30.307Z,22304.00
2023-04-25T11:33:30.225Z,22624.00
2023-04-25T11:34:30.226Z,21856.00
2023-04-25T11:35:30.195Z,21568.00
2023-04-25T11:36:30.220Z,22336.00
2023-04-25T11:37:30.171Z,24512.00
2023-04-25T11:38:30.188Z,26624.00
2023-04-25T11:39:30.170Z,27680.00
2023-04-25T11:40:30.132Z,29056.00
2023-04-25T11:41:30.152Z,27648.00
2023-04-25T11:42:30.103Z,24352.00
2023-04-25T11:43:30.269Z,20960.00
2023-04-25T11:44:30.105Z,18528.00
2023-04-25T11:45:30.073Z,16532.00
2023-04-25T11:46:30.177Z,14800.00
2023-04-25T11:47:30.153Z,13252.00
2023-04-25T11:48:30.075Z,11872.00
2023-04-25T11:49:30.457Z,11060.00
2023-04-25T11:50:30.008Z,10952.00
2023-04-25T11:51:30.089Z,11008.00
2023-04-25T11:52:30.015Z,11312.00
2023-04-25T11:53:29.994Z,11736.00
2023-04-25T11:54:29.965Z,12468.00
2023-04-25T11:55:30.026Z,14240.00
2023-04-25T11:56:29.969Z,16652.00
2023-04-25T11:57:29.963Z,20256.00
2023-04-25T11:58:29.945Z,24064.00
2023-04-25T11:59:29.939Z,26144.00
2023-04-25T12:00:29.920Z,24864.00
2023-04-25T12:01:31.742Z,21792.00
2023-04-25T12:02:31.040Z,18016.00
2023-04-25T12:03:30.015Z,14460.00
2023-04-25T12:04:30.134Z,11604.00
2023-04-25T12:05:33.345Z,9704.00
2023-04-25T12:06:29.899Z,8676.00
2023-04-25T12:07:29.846Z,8096.00
2023-04-25T12:08:29.812Z,7632.00
2023-04-25T12:09:29.811Z,7200.00
2023-04-25T12:10:29.799Z,6856.00
2023-04-25T12:11:29.801Z,6672.00
2023-04-25T12:12:29.804Z,6624.00
2023-04-25T12:13:29.794Z,6720.00
2023-04-25T12:14:29.775Z,6976.00
2023-04-25T12:15:29.742Z,7304.00
2023-04-25T12:16:29.752Z,7692.00